aviador You're here:

PAMK Decoded Metar

ST MICHAEL in AK, USA
Report Time2018-02-17 22:56:00
UTC Time2018-02-17 23:32:54
Flight Rules vfr VFR
Wind110° at 23 Gusting to 30 kt
W.Decomp.*RWY 02: 6.7 kt HW 22.0 kt RCW
W.Rank110° ranks 21
Current wind is above 110° avg. (8.9)
Visibility9999 m
Phenomena:N/A
Clouds:N/A
Expected CloudBase > 3,200 ft AGL from Temp-Dew spread
CeilingNone
Temp02°C (ISA -13)
Dew Point-6°C (56% RH)
AAT-9.0°C
QNH1032 hPa
Density Alt-2,057 ft
Elevation92 ft
Report Wrong Elevation
Raw Report
PAMK 172256Z AUTO 11023G30KT 10SM CLR 02/M06 A3048 RMK AO2 PK WND
10030/2254 SLP325 T00221061 FZRANO $=

Extra information for PAMK:More info

Metar Taf Metar & Taf Last 4 Metars F.Rules Stats Wind Profile Meteogram Temp Stats Airport Information Weather charts Add Link Nearby VenuesMetar ALERT Operation Metar Decoded Social comments

AIRNAV info for PAMK